Time;durP1;ratioP1;P1;durP2;ratioP2;P2;SDS_P1;SDS_P2;PMS_P1;PMS_P2;Temp;Humidity;BMP_temperature;BMP_pressure;BME280_temperature;BME280_humidity;BME280_pressure;Samples;Min_cycle;Max_cycle;Signal;HPM_P1;HPM_P2
2022/03/08 00:00:49;;;;;;;;;34.75;30.50;;;;;5.67;42.13;101032.41;5055450;28;46051;-81
2022/03/08 00:03:15;;;;;;;;;36.00;30.25;;;;;5.63;42.27;101024.81;5054952;28;45743;-80
2022/03/08 00:05:40;;;;;;;;;38.00;25.50;;;;;5.63;41.95;101024.81;5055932;28;45648;-80
2022/03/08 00:08:06;;;;;;;;;37.25;30.50;;;;;5.63;41.89;101030.84;5055103;28;45934;-80
2022/03/08 00:10:31;;;;;;;;;37.25;31.50;;;;;5.61;42.07;101022.31;5055571;28;46449;-78
2022/03/08 00:12:56;;;;;;;;;41.50;32.00;;;;;5.61;42.42;101019.69;5055758;28;46360;-81
2022/03/08 00:15:25;;;;;;;;;32.00;29.50;;;;;5.60;42.11;101012.81;5055653;28;45685;-81
2022/03/08 00:17:53;;;;;;;;;26.50;22.75;;;;;5.57;42.02;101012.91;5055566;28;45595;-78
2022/03/08 00:20:18;;;;;;;;;33.25;29.25;;;;;5.58;42.18;101016.38;5055792;28;45647;-79
2022/03/08 00:22:44;;;;;;;;;35.00;29.00;;;;;5.55;42.44;101011.31;5054797;28;46266;-79
2022/03/08 00:25:11;;;;;;;;;37.25;28.50;;;;;5.54;42.43;101014.81;5038086;28;45682;-77
2022/03/08 00:30:58;;;;;;;;;29.50;24.50;;;;;5.52;42.30;101014.03;5050479;28;45972;-80
2022/03/08 00:33:24;;;;;;;;;34.75;31.00;;;;;5.49;42.90;101013.28;5054214;28;48490;-80
2022/03/08 00:35:52;;;;;;;;;32.25;27.75;;;;;5.47;42.61;101015.09;5053754;28;45733;-81
2022/03/08 00:38:18;;;;;;;;;29.50;26.25;;;;;5.47;42.58;101020.28;5055224;28;45781;-80
2022/03/08 00:40:43;;;;;;;;;43.75;35.75;;;;;5.44;42.60;101020.44;5055308;28;47420;-80
2022/03/08 00:43:09;;;;;;;;;36.25;29.25;;;;;5.40;43.07;101013.66;5055220;28;46435;-81
2022/03/08 00:45:34;;;;;;;;;32.50;29.25;;;;;5.36;42.75;101012.09;5055674;28;45488;-80
2022/03/08 00:48:00;;;;;;;;;34.00;28.00;;;;;5.35;43.00;101015.59;5055285;28;45605;-81
2022/03/08 00:50:27;;;;;;;;;40.00;28.00;;;;;5.32;42.74;101015.75;5055772;28;46615;-77
2022/03/08 00:52:54;;;;;;;;;35.00;30.50;;;;;5.34;42.70;101010.50;5055200;28;47643;-79
2022/03/08 00:55:21;;;;;;;;;32.25;28.75;;;;;5.23;43.17;100999.72;5054939;28;46182;-79
2022/03/08 01:01:08;;;;;;;;;43.75;32.25;;;;;5.26;43.23;101015.16;5055004;28;45981;-80
2022/03/08 01:03:34;;;;;;;;;26.50;26.00;;;;;5.23;42.93;101012.72;5054884;28;47209;-80
2022/03/08 01:06:01;;;;;;;;;32.00;25.75;;;;;5.24;43.30;101004.84;5055235;28;45774;-77
2022/03/08 01:08:26;;;;;;;;;35.25;28.25;;;;;5.18;43.11;100994.75;5054438;28;45557;-79
2022/03/08 01:10:52;;;;;;;;;32.25;28.75;;;;;5.18;42.94;101004.28;5054417;28;45558;-79
2022/03/08 01:16:39;;;;;;;;;30.75;26.25;;;;;5.15;43.69;100994.84;5054080;28;45736;-76
2022/03/08 01:19:06;;;;;;;;;31.00;26.25;;;;;5.17;43.34;100999.97;5053945;28;45662;-78
2022/03/08 01:21:35;;;;;;;;;37.00;29.00;;;;;5.11;43.55;100992.44;5053864;28;47786;-78
2022/03/08 01:24:00;;;;;;;;;36.75;31.50;;;;;5.08;43.45;100999.44;5054026;28;46144;-75
2022/03/08 01:26:25;;;;;;;;;35.25;29.50;;;;;5.04;43.95;100984.91;5053815;28;45821;-78
2022/03/08 01:28:51;;;;;;;;;31.75;27.00;;;;;5.01;43.41;100989.41;5052899;28;45872;-80
2022/03/08 01:31:16;;;;;;;;;25.75;24.25;;;;;4.98;43.49;100989.50;5053819;28;45784;-77
2022/03/08 01:33:42;;;;;;;;;38.50;28.25;;;;;5.02;43.86;100994.50;5035603;28;46834;-78
2022/03/08 01:36:07;;;;;;;;;34.00;30.00;;;;;5.01;43.79;100992.84;5053797;28;45949;-76
2022/03/08 01:38:32;;;;;;;;;30.00;24.00;;;;;4.96;44.00;100984.41;5035398;28;45998;-80
2022/03/08 01:40:58;;;;;;;;;31.00;26.25;;;;;4.98;44.01;100995.56;5053233;28;46565;-78
2022/03/08 01:43:23;;;;;;;;;42.75;33.25;;;;;4.96;43.83;100989.59;5035213;28;47852;-80
2022/03/08 01:45:49;;;;;;;;;35.50;27.25;;;;;4.90;44.20;100982.06;5053565;28;45671;-76
2022/03/08 01:48:14;;;;;;;;;40.00;31.50;;;;;4.90;43.98;100981.22;5053736;28;45668;-78
2022/03/08 01:50:39;;;;;;;;;35.00;29.50;;;;;4.90;44.27;100984.66;5053572;28;45886;-77
2022/03/08 01:53:06;;;;;;;;;35.50;28.75;;;;;4.81;43.77;100966.84;5051433;28;48009;-77
2022/03/08 01:55:32;;;;;;;;;31.00;27.50;;;;;4.89;44.08;100980.38;5053324;28;45899;-80
2022/03/08 01:58:01;;;;;;;;;44.50;34.75;;;;;4.86;44.14;100982.25;5053194;28;45570;-78
2022/03/08 02:00:30;;;;;;;;;33.50;27.00;;;;;4.83;44.23;100975.44;5053372;28;46684;-79
2022/03/08 02:02:57;;;;;;;;;31.25;26.25;;;;;4.86;43.92;100979.66;5053500;28;46051;-81
2022/03/08 02:05:24;;;;;;;;;39.00;29.00;;;;;4.85;44.31;100985.75;5053464;28;45585;-79
2022/03/08 02:07:49;;;;;;;;;28.00;25.75;;;;;4.80;44.25;100970.38;5053212;28;45587;-79
2022/03/08 02:10:15;;;;;;;;;35.00;28.50;;;;;4.83;44.40;100979.78;5053518;28;45861;-77
2022/03/08 02:12:40;;;;;;;;;30.50;25.75;;;;;4.82;44.34;100965.94;5053373;28;46566;-78
2022/03/08 02:15:23;;;;;;;;;35.00;27.00;;;;;4.82;44.34;100970.28;5053393;28;45698;-80
2022/03/08 02:17:49;;;;;;;;;34.25;29.25;;;;;4.83;44.14;100972.00;5053373;28;45766;-76
2022/03/08 02:20:16;;;;;;;;;34.25;28.75;;;;;4.80;44.69;100962.59;5053001;28;45777;-79
2022/03/08 02:22:43;;;;;;;;;34.25;26.50;;;;;4.83;44.26;100972.84;5053198;28;46139;-80
2022/03/08 02:25:08;;;;;;;;;35.00;27.75;;;;;4.76;44.27;100957.56;5052693;28;45634;-78
2022/03/08 02:27:41;;;;;;;;;33.50;28.75;;;;;4.69;44.33;100945.78;5050914;28;46082;-79
2022/03/08 02:30:08;;;;;;;;;32.25;22.75;;;;;4.75;44.47;100958.50;5052979;28;46538;-80
2022/03/08 02:32:33;;;;;;;;;36.75;29.00;;;;;4.77;44.48;100960.09;5052598;28;46212;-80
2022/03/08 02:35:13;;;;;;;;;34.25;30.25;;;;;4.75;44.42;100959.31;5052943;28;45631;-80
2022/03/08 02:37:41;;;;;;;;;28.50;24.00;;;;;4.77;44.33;100967.03;5051208;28;46162;-80
2022/03/08 02:40:13;;;;;;;;;33.75;30.25;;;;;4.75;44.76;100956.72;5052712;28;45652;-78
2022/03/08 02:42:39;;;;;;;;;33.75;27.25;;;;;4.75;44.38;100958.50;5052431;28;47362;-78
2022/03/08 02:45:06;;;;;;;;;30.25;27.50;;;;;4.71;44.73;100946.53;5052583;28;45618;-79
2022/03/08 02:47:32;;;;;;;;;33.75;27.25;;;;;4.74;44.41;100954.22;5034598;28;45654;-79
2022/03/08 02:49:58;;;;;;;;;34.00;29.25;;;;;4.71;44.65;100942.19;5052666;28;45611;-80
2022/03/08 02:52:24;;;;;;;;;31.50;31.25;;;;;4.73;44.48;100943.00;5052666;28;46597;-80
2022/03/08 02:54:50;;;;;;;;;27.75;27.00;;;;;4.75;44.85;100940.34;5052564;28;45904;-80
2022/03/08 02:57:15;;;;;;;;;30.00;26.00;;;;;4.71;44.69;100933.56;5052926;28;45668;-77
2022/03/08 02:59:41;;;;;;;;;25.75;22.75;;;;;4.74;44.68;100943.84;5052163;28;45657;-80
2022/03/08 03:02:06;;;;;;;;;25.25;24.00;;;;;4.74;44.67;100943.84;5052567;28;46080;-79
2022/03/08 03:04:32;;;;;;;;;34.75;30.00;;;;;4.72;44.66;100938.69;5052579;28;45445;-78
2022/03/08 03:06:58;;;;;;;;;32.75;28.25;;;;;4.74;44.75;100946.44;5037556;28;45749;-77
2022/03/08 03:09:23;;;;;;;;;33.00;26.25;;;;;4.73;44.83;100934.34;5055771;28;46513;-79
2022/03/08 03:11:49;;;;;;;;;35.50;31.25;;;;;4.73;44.63;100934.34;5054545;28;45845;-79
2022/03/08 03:17:36;;;;;;;;;34.50;27.00;;;;;4.70;45.03;100927.53;5055655;28;45666;-79
2022/03/08 03:20:04;;;;;;;;;31.25;24.50;;;;;4.70;45.00;100921.53;5055797;28;46836;-77
2022/03/08 03:22:31;;;;;;;;;30.50;28.50;;;;;4.67;45.07;100921.63;5056004;28;45954;-80
2022/03/08 03:24:56;;;;;;;;;32.50;26.50;;;;;4.69;44.88;100925.88;5054469;28;46045;-79
2022/03/08 03:27:22;;;;;;;;;32.75;29.00;;;;;4.65;45.08;100912.16;5055901;28;45488;-81
2022/03/08 03:33:08;;;;;;;;;35.75;29.75;;;;;4.63;45.36;100915.75;5053771;28;45947;-78
2022/03/08 03:35:34;;;;;;;;;40.00;32.25;;;;;4.60;45.34;100910.66;5056042;28;46230;-80
2022/03/08 03:37:59;;;;;;;;;35.00;29.25;;;;;4.57;45.24;100897.81;5056688;28;45746;-77
2022/03/08 03:40:25;;;;;;;;;33.25;30.25;;;;;4.57;45.14;100905.63;5056362;28;45610;-78
2022/03/08 03:42:50;;;;;;;;;32.25;26.75;;;;;4.55;45.31;100897.03;5055302;28;46286;-79
2022/03/08 03:45:16;;;;;;;;;35.50;25.50;;;;;4.57;45.38;100895.22;5055805;28;45800;-78
2022/03/08 03:47:42;;;;;;;;;32.75;27.00;;;;;4.56;45.16;100898.72;5055797;28;45712;-77
2022/03/08 03:50:08;;;;;;;;;30.25;27.25;;;;;4.58;45.48;100899.53;5055773;28;46539;-76
2022/03/08 03:52:34;;;;;;;;;40.75;29.50;;;;;4.56;45.58;100898.72;5055319;28;47111;-79
2022/03/08 03:55:02;;;;;;;;;36.75;29.25;;;;;4.55;45.65;100900.47;5055325;28;45583;-80
2022/03/08 03:57:28;;;;;;;;;37.25;27.75;;;;;4.55;45.21;100900.47;5055054;28;45667;-77
2022/03/08 04:03:15;;;;;;;;;39.50;33.25;;;;;4.52;45.74;100902.38;5054758;28;46068;-77
2022/03/08 04:05:41;;;;;;;;;36.75;27.00;;;;;4.53;45.68;100907.50;5055265;28;45750;-77
2022/03/08 04:08:07;;;;;;;;;30.50;24.75;;;;;4.52;45.20;100905.81;5055006;28;45860;-77
2022/03/08 04:10:32;;;;;;;;;30.75;29.50;;;;;4.46;45.54;100900.88;5036553;28;48319;-79
2022/03/08 04:12:58;;;;;;;;;31.50;25.25;;;;;4.42;45.79;100894.13;5053978;28;46252;-78
2022/03/08 04:15:24;;;;;;;;;35.25;30.00;;;;;4.40;45.67;100890.75;5055024;28;46044;-78
2022/03/08 04:17:49;;;;;;;;;35.50;26.50;;;;;4.46;45.78;100905.22;5054298;28;45546;-79
2022/03/08 04:20:15;;;;;;;;;33.25;29.00;;;;;4.46;45.80;100900.03;5054849;28;46356;-78
2022/03/08 04:22:40;;;;;;;;;38.00;32.25;;;;;4.45;45.62;100903.50;5054884;28;45581;-80
2022/03/08 04:25:06;;;;;;;;;30.00;24.00;;;;;4.39;45.82;100891.66;5054915;28;45700;-78
2022/03/08 04:27:32;;;;;;;;;33.50;30.50;;;;;4.41;45.82;100899.38;5054540;28;45689;-78
2022/03/08 04:33:19;;;;;;;;;32.25;26.50;;;;;4.34;45.91;100884.94;5054130;28;45855;-78
2022/03/08 04:35:45;;;;;;;;;37.50;29.75;;;;;4.33;45.61;100894.47;5054847;28;46181;-78
2022/03/08 04:38:10;;;;;;;;;39.25;33.50;;;;;4.33;46.08;100898.81;5054362;28;45696;-77
2022/03/08 04:40:36;;;;;;;;;39.75;29.75;;;;;4.31;46.01;100895.47;5054733;28;46392;-78
2022/03/08 04:43:01;;;;;;;;;34.50;25.00;;;;;4.30;45.99;100897.22;5054387;28;45900;-78
2022/03/08 04:48:48;;;;;;;;;33.00;26.50;;;;;4.23;46.20;100886.25;5054234;28;45722;-78
2022/03/08 04:51:14;;;;;;;;;25.50;20.50;;;;;4.21;46.11;100882.84;5052858;28;45800;-79
2022/03/08 04:53:40;;;;;;;;;32.25;23.25;;;;;4.21;46.18;100889.81;5054209;28;46224;-79
2022/03/08 04:56:05;;;;;;;;;38.25;31.25;;;;;4.19;46.30;100892.47;5053888;28;46007;-79
2022/03/08 04:58:30;;;;;;;;;39.00;29.25;;;;;4.14;46.16;100886.63;5053803;28;45846;-78
2022/03/08 05:00:56;;;;;;;;;38.75;30.00;;;;;4.12;46.29;100885.81;5052797;28;47747;-76
2022/03/08 05:03:21;;;;;;;;;37.50;30.25;;;;;4.12;46.58;100887.56;5054321;28;46196;-79
2022/03/08 05:05:46;;;;;;;;;36.25;30.75;;;;;4.12;46.37;100888.41;5054238;28;45670;-78
2022/03/08 05:08:14;;;;;;;;;34.50;29.75;;;;;4.11;46.23;100888.47;5053927;28;45674;-81
2022/03/08 05:10:39;;;;;;;;;36.50;32.75;;;;;4.06;46.46;100880.03;5054221;28;46628;-81
2022/03/08 05:13:04;;;;;;;;;33.00;30.25;;;;;4.07;46.40;100879.97;5054152;28;45642;-79
2022/03/08 05:18:51;;;;;;;;;34.75;30.75;;;;;4.07;46.61;100873.94;5053838;28;45687;-80
2022/03/08 05:21:17;;;;;;;;;32.25;27.25;;;;;3.95;46.38;100867.50;5053298;28;45666;-75
2022/03/08 05:23:42;;;;;;;;;36.00;28.50;;;;;4.07;46.63;100881.72;5054288;28;46206;-78
2022/03/08 05:26:08;;;;;;;;;40.75;31.00;;;;;4.07;46.50;100881.72;5054474;28;45630;-79
2022/03/08 05:28:33;;;;;;;;;29.25;19.75;;;;;4.07;46.56;100881.72;5053051;28;45865;-77
2022/03/08 05:34:20;;;;;;;;;37.75;32.00;;;;;4.07;46.83;100879.13;5049643;28;46228;-78
2022/03/08 05:36:46;;;;;;;;;32.75;25.50;;;;;4.04;46.88;100877.53;5053612;28;45683;-76
2022/03/08 05:39:11;;;;;;;;;33.50;28.00;;;;;4.00;46.79;100875.09;5035270;28;45738;-77
2022/03/08 05:41:37;;;;;;;;;29.00;27.00;;;;;4.03;46.94;100877.59;5052350;28;48341;-79
2022/03/08 05:44:02;;;;;;;;;32.75;27.75;;;;;4.00;46.90;100872.50;5053582;28;45757;-78
2022/03/08 05:46:27;;;;;;;;;38.50;29.50;;;;;3.99;46.90;100869.09;5052600;28;45983;-78
2022/03/08 05:48:53;;;;;;;;;38.00;33.75;;;;;4.02;46.86;100884.50;5035213;28;45715;-79
2022/03/08 05:51:18;;;;;;;;;39.75;26.75;;;;;4.00;46.86;100870.75;5035170;28;47974;-80
2022/03/08 05:53:44;;;;;;;;;38.00;30.75;;;;;4.01;46.99;100876.78;5053339;28;45702;-79
2022/03/08 05:56:10;;;;;;;;;32.25;25.75;;;;;4.02;46.94;100884.50;5053177;28;45781;-79
2022/03/08 05:58:36;;;;;;;;;38.00;31.75;;;;;4.02;47.41;100875.88;5052130;28;45729;-80
2022/03/08 06:04:23;;;;;;;;;41.25;32.00;;;;;3.93;47.11;100879.69;5053212;28;46110;-79
2022/03/08 06:06:50;;;;;;;;;42.75;35.75;;;;;3.96;47.27;100884.75;5053382;28;45892;-81
2022/03/08 06:09:16;;;;;;;;;39.00;29.50;;;;;3.96;47.31;100889.09;5053398;28;45608;-80
2022/03/08 06:11:41;;;;;;;;;41.50;33.50;;;;;3.96;46.95;100887.34;5053351;28;46500;-80
2022/03/08 06:14:07;;;;;;;;;37.25;27.25;;;;;3.95;47.58;100885.66;5052259;28;46416;-78
2022/03/08 06:19:54;;;;;;;;;36.00;29.00;;;;;3.95;47.43;100889.97;5053082;28;45571;-80
2022/03/08 06:22:19;;;;;;;;;45.00;34.25;;;;;3.96;47.49;100887.34;5034666;28;47186;-81
2022/03/08 06:24:44;;;;;;;;;33.50;31.25;;;;;3.94;47.27;100888.31;5053559;28;45652;-80
2022/03/08 06:27:10;;;;;;;;;33.50;28.75;;;;;3.95;47.39;100889.97;5052267;28;45679;-78
2022/03/08 06:29:36;;;;;;;;;36.25;33.50;;;;;3.94;47.38;100893.50;5053081;28;45555;-79
2022/03/08 06:32:03;;;;;;;;;44.25;32.50;;;;;3.94;47.57;100896.09;5052743;28;45975;-79
2022/03/08 06:34:28;;;;;;;;;36.75;28.25;;;;;3.87;47.61;100882.53;5052718;28;46403;-81
2022/03/08 06:36:53;;;;;;;;;39.00;30.25;;;;;3.89;47.57;100885.88;5052955;28;45754;-80
2022/03/08 06:39:19;;;;;;;;;37.00;29.50;;;;;3.92;47.67;100893.56;5052691;28;45854;-79
2022/03/08 06:41:44;;;;;;;;;38.75;33.25;;;;;3.93;47.73;100897.84;5053145;28;45753;-79
2022/03/08 06:44:11;;;;;;;;;36.25;29.25;;;;;3.91;47.95;100893.59;5052365;28;45844;-80
2022/03/08 06:49:58;;;;;;;;;38.00;31.00;;;;;3.94;47.80;100890.91;5053327;28;45632;-79
2022/03/08 06:52:24;;;;;;;;;41.75;33.75;;;;;3.95;47.92;100895.16;5053322;28;47526;-79
2022/03/08 06:54:49;;;;;;;;;35.75;32.25;;;;;3.97;47.93;100899.41;5053553;28;46245;-75
2022/03/08 06:57:15;;;;;;;;;36.75;30.00;;;;;3.97;47.72;100894.22;5053388;28;45559;-80
2022/03/08 06:59:40;;;;;;;;;38.75;32.50;;;;;4.00;47.97;100907.03;5053168;28;45975;-78
2022/03/08 07:02:06;;;;;;;;;42.00;32.75;;;;;3.97;47.79;100893.38;5053854;28;46599;-80
2022/03/08 07:04:31;;;;;;;;;41.50;34.00;;;;;4.04;47.77;100900.84;5053451;28;46307;-78
2022/03/08 07:06:57;;;;;;;;;35.00;32.00;;;;;3.92;47.70;100874.56;5053758;28;45515;-80
2022/03/08 07:09:22;;;;;;;;;36.50;32.75;;;;;4.07;47.52;100895.53;5053516;28;45605;-81
2022/03/08 07:11:48;;;;;;;;;38.00;31.50;;;;;4.07;47.91;100890.34;5052446;28;45603;-82
2022/03/08 07:14:15;;;;;;;;;43.75;39.25;;;;;4.08;47.61;100888.59;5034816;28;46963;-81
2022/03/08 07:20:03;;;;;;;;;46.25;38.50;;;;;4.10;48.09;100887.63;5053051;28;45563;-79
2022/03/08 07:22:30;;;;;;;;;47.00;32.25;;;;;4.10;48.12;100892.00;5034731;28;45722;-81
2022/03/08 07:24:55;;;;;;;;;46.25;41.25;;;;;4.11;47.99;100896.25;5052907;28;46110;-81
2022/03/08 07:27:21;;;;;;;;;40.50;30.00;;;;;4.13;48.10;100897.88;5053148;28;45542;-78
2022/03/08 07:29:47;;;;;;;;;44.25;36.75;;;;;4.19;48.05;100902.00;5053198;28;45897;-81
2022/03/08 07:35:34;;;;;;;;;44.75;32.75;;;;;4.29;47.88;100910.22;5051539;28;46053;-79
2022/03/08 07:38:00;;;;;;;;;36.25;29.75;;;;;4.30;47.70;100917.13;5052475;28;46241;-80
2022/03/08 07:40:26;;;;;;;;;48.75;39.25;;;;;4.30;48.20;100915.38;5053637;28;45476;-80
2022/03/08 07:42:51;;;;;;;;;95.00;59.75;;;;;4.39;47.92;100935.72;5035133;28;47655;-80
2022/03/08 07:45:16;;;;;;;;;47.75;34.50;;;;;4.42;47.93;100937.38;5053800;28;45507;-80
2022/03/08 07:47:42;;;;;;;;;77.00;50.50;;;;;4.42;47.80;100934.78;5053016;28;45542;-79
2022/03/08 07:50:08;;;;;;;;;46.50;38.00;;;;;4.34;47.75;100918.66;5052299;28;45942;-81
2022/03/08 07:52:33;;;;;;;;;45.50;36.25;;;;;4.44;47.89;100931.19;5055166;28;46727;-81
2022/03/08 07:54:59;;;;;;;;;45.50;37.25;;;;;4.44;47.82;100930.34;5056200;28;45721;-81
2022/03/08 07:57:24;;;;;;;;;43.75;33.75;;;;;4.37;47.70;100910.78;5056021;28;45547;-80
2022/03/08 07:59:50;;;;;;;;;37.50;30.00;;;;;4.52;47.65;100934.34;5056314;28;45460;-79
2022/03/08 08:05:37;;;;;;;;;48.75;36.25;;;;;4.60;47.58;100928.81;5055894;28;45738;-80
2022/03/08 08:08:04;;;;;;;;;42.50;33.00;;;;;4.62;47.57;100932.22;5056066;28;45911;-80
2022/03/08 08:10:30;;;;;;;;;44.00;38.00;;;;;4.60;47.32;100928.81;5056090;28;45765;-78
2022/03/08 08:12:55;;;;;;;;;46.75;36.50;;;;;4.67;47.62;100939.78;5055330;28;45677;-79
2022/03/08 08:15:21;;;;;;;;;39.00;35.25;;;;;4.65;47.51;100922.53;5055678;28;45598;-80
2022/03/08 08:21:08;;;;;;;;;51.00;37.75;;;;;4.77;47.35;100920.34;5055238;28;45533;-77
2022/03/08 08:23:33;;;;;;;;;44.25;32.25;;;;;4.83;47.29;100927.88;5055140;28;47825;-80
2022/03/08 08:25:59;;;;;;;;;41.00;33.75;;;;;4.84;47.29;100919.19;5055171;28;45747;-77
2022/03/08 08:28:24;;;;;;;;;45.00;38.50;;;;;4.84;46.95;100920.03;5053195;28;45629;-79
2022/03/08 08:30:50;;;;;;;;;44.50;34.00;;;;;4.92;47.07;100936.09;5055219;28;45863;-76
2022/03/08 08:33:15;;;;;;;;;44.75;35.50;;;;;4.92;46.95;100936.09;5054874;28;47377;-78
2022/03/08 08:35:41;;;;;;;;;32.50;28.75;;;;;4.98;46.78;100937.59;5032938;28;46925;-78
2022/03/08 08:38:06;;;;;;;;;53.25;40.25;;;;;4.99;47.22;100934.09;5035013;28;45649;-78
2022/03/08 08:40:34;;;;;;;;;49.75;41.25;;;;;5.05;47.24;100945.06;5035263;28;45660;-78
2022/03/08 08:43:00;;;;;;;;;38.25;34.25;;;;;4.98;46.82;100922.88;5035199;28;45662;-78
2022/03/08 08:45:25;;;;;;;;;48.75;36.50;;;;;5.11;46.90;100943.97;5034922;28;45736;-78
2022/03/08 08:51:12;;;;;;;;;48.25;38.00;;;;;5.15;46.94;100929.94;5034951;28;45602;-79
2022/03/08 08:53:38;;;;;;;;;42.00;36.50;;;;;5.21;46.90;100937.44;5034713;28;46772;-78
2022/03/08 08:56:04;;;;;;;;;46.75;36.25;;;;;5.27;47.23;100941.53;5034297;28;45689;-78
2022/03/08 08:58:29;;;;;;;;;52.50;39.50;;;;;5.27;47.08;100937.19;5034746;28;45616;-78
2022/03/08 09:00:55;;;;;;;;;47.25;37.50;;;;;5.33;46.65;100944.72;5035265;28;45577;-79
2022/03/08 09:03:20;;;;;;;;;41.25;37.75;;;;;5.39;46.96;100947.03;5033846;28;46397;-78
2022/03/08 09:05:46;;;;;;;;;52.75;38.50;;;;;5.44;46.92;100946.84;5035173;28;45639;-79
2022/03/08 09:08:15;;;;;;;;;45.75;37.00;;;;;5.47;46.76;100949.28;5034726;28;45851;-78
2022/03/08 09:10:41;;;;;;;;;44.25;36.50;;;;;5.51;47.08;100935.25;5034971;28;45630;-79
2022/03/08 09:13:07;;;;;;;;;41.75;35.00;;;;;5.60;46.46;100936.59;5035182;28;46330;-78
2022/03/08 09:15:33;;;;;;;;;54.00;41.00;;;;;5.52;46.43;100913.53;5035323;28;46300;-80
2022/03/08 09:21:20;;;;;;;;;47.75;42.00;;;;;5.71;46.44;100930.00;5034540;28;45583;-81
2022/03/08 09:23:46;;;;;;;;;54.25;40.75;;;;;5.80;46.42;100936.53;5034967;28;45619;-81
2022/03/08 09:26:13;;;;;;;;;47.75;37.50;;;;;5.83;46.69;100933.81;5034749;28;45894;-80
2022/03/08 09:28:38;;;;;;;;;42.50;36.75;;;;;5.79;46.51;100919.22;5034710;28;45681;-80
2022/03/08 09:31:04;;;;;;;;;48.00;38.50;;;;;5.85;46.57;100922.41;5034448;28;45803;-80
2022/03/08 09:36:51;;;;;;;;;53.50;43.25;;;;;6.00;46.47;100922.63;5052015;28;45938;-80
2022/03/08 09:39:17;;;;;;;;;56.50;41.75;;;;;6.03;46.21;100919.88;5053524;28;45698;-80
2022/03/08 09:41:43;;;;;;;;;47.50;40.50;;;;;6.08;46.23;100918.75;5054650;28;45754;-80
2022/03/08 09:44:13;;;;;;;;;50.50;41.25;;;;;6.14;46.44;100921.06;5054314;28;45623;-81
2022/03/08 09:46:39;;;;;;;;;52.75;41.75;;;;;6.24;46.28;100918.88;5035807;28;48173;-79
2022/03/08 09:49:05;;;;;;;;;43.50;40.25;;;;;6.15;46.49;100903.72;5053974;28;45876;-80
2022/03/08 09:51:31;;;;;;;;;47.25;40.25;;;;;6.24;46.26;100914.50;5053111;28;45644;-80
2022/03/08 09:53:56;;;;;;;;;44.50;39.25;;;;;6.33;46.14;100923.63;5054069;28;46682;-81
2022/03/08 09:56:22;;;;;;;;;54.25;42.00;;;;;6.41;46.11;100918.88;5053974;28;46033;-81
2022/03/08 09:58:48;;;;;;;;;49.50;42.25;;;;;6.44;46.28;100910.91;5053956;28;45657;-80
2022/03/08 10:01:14;;;;;;;;;44.50;39.75;;;;;6.51;46.13;100911.47;5054139;28;45619;-80
2022/03/08 10:07:08;;;;;;;;;58.00;42.00;;;;;6.75;46.16;100926.69;5053429;28;46219;-81
2022/03/08 10:09:34;;;;;;;;;48.50;42.25;;;;;6.78;45.82;100917.06;5053990;28;45878;-79
2022/03/08 10:11:59;;;;;;;;;59.25;42.25;;;;;6.85;46.16;100915.84;5053977;28;45405;-80
2022/03/08 10:14:39;;;;;;;;;56.75;43.75;;;;;6.98;46.05;100916.88;5053229;28;47084;-81
2022/03/08 10:17:06;;;;;;;;;50.50;38.00;;;;;7.01;45.75;100901.13;5053657;28;46091;-84
2022/03/08 10:19:46;;;;;;;;;52.75;43.00;;;;;7.07;45.63;100896.41;5035792;28;45912;-79
2022/03/08 10:22:25;;;;;;;;;57.25;44.50;;;;;7.22;45.85;100900.00;5054185;28;45657;-80
2022/03/08 10:24:50;;;;;;;;;52.25;44.00;;;;;7.17;45.66;100878.56;5055501;28;45794;-79
2022/03/08 10:27:16;;;;;;;;;51.00;41.50;;;;;7.33;45.96;100883.78;5055367;28;46464;-78
2022/03/08 10:29:42;;;;;;;;;63.75;45.75;;;;;7.44;45.82;100886.66;5056738;28;45582;-84
2022/03/08 10:32:09;;;;;;;;;66.25;52.25;;;;;7.51;45.56;100891.44;5058542;28;45673;-81
2022/03/08 10:34:36;;;;;;;;;61.75;50.00;;;;;7.47;45.44;100871.69;5058617;28;46504;-85
2022/03/08 10:37:12;;;;;;;;;53.75;42.00;;;;;7.62;45.42;100880.44;5056545;28;45515;-82
2022/03/08 10:40:09;;;;;;;;;48.25;41.75;;;;;7.73;45.41;100882.47;5053746;28;45877;-78
2022/03/08 10:42:39;;;;;;;;;61.25;47.00;;;;;7.81;45.02;100888.13;4991752;28;45697;-78
2022/03/08 10:45:06;;;;;;;;;47.25;38.50;;;;;7.88;45.02;100885.06;4992013;28;46679;-78
2022/03/08 10:47:42;;;;;;;;;57.00;44.25;;;;;7.92;44.89;100884.00;4991484;28;46174;-78
2022/03/08 10:50:10;;;;;;;;;58.75;45.75;;;;;7.96;45.00;100880.28;4991557;28;45713;-77
2022/03/08 10:52:38;;;;;;;;;58.25;42.25;;;;;8.08;44.88;100881.38;4992090;28;45728;-78
2022/03/08 10:55:21;;;;;;;;;55.75;45.50;;;;;8.15;44.68;100889.69;4991412;28;45699;-78
2022/03/08 10:57:50;;;;;;;;;43.50;37.75;;;;;8.22;44.45;100888.41;4991158;28;46397;-78
2022/03/08 11:00:20;;;;;;;;;57.00;44.50;;;;;8.17;44.54;100861.72;4991503;28;45542;-79
2022/03/08 11:02:53;;;;;;;;;60.00;45.00;;;;;8.35;44.62;100872.00;4991648;28;45584;-79
2022/03/08 11:05:20;;;;;;;;;57.25;45.00;;;;;8.42;44.47;100862.84;4992217;28;45780;-78
2022/03/08 11:07:47;;;;;;;;;60.25;45.50;;;;;8.47;44.33;100864.38;4991329;28;45778;-79
2022/03/08 11:10:13;;;;;;;;;58.50;42.50;;;;;8.53;44.38;100856.19;4991265;28;45564;-77
2022/03/08 11:12:40;;;;;;;;;57.25;45.50;;;;;8.62;44.33;100863.47;4991323;28;46002;-80
2022/03/08 11:15:08;;;;;;;;;49.25;40.00;;;;;8.66;44.14;100852.75;4991289;28;45728;-78
2022/03/08 11:17:36;;;;;;;;;57.50;43.50;;;;;8.72;43.90;100855.00;4974579;28;46586;-79
2022/03/08 11:20:04;;;;;;;;;51.00;42.50;;;;;8.77;44.09;100846.91;5049548;28;45520;-78
2022/03/08 11:22:31;;;;;;;;;61.00;45.25;;;;;8.79;43.89;100842.44;5053016;28;45507;-79
2022/03/08 11:24:57;;;;;;;;;58.00;46.00;;;;;8.91;43.78;100854.72;5053244;28;45630;-78
2022/03/08 11:27:23;;;;;;;;;59.75;44.25;;;;;8.88;43.81;100833.19;5055215;28;46176;-79
2022/03/08 11:29:50;;;;;;;;;57.00;45.00;;;;;9.04;43.53;100852.22;5056859;28;45798;-79
2022/03/08 11:32:31;;;;;;;;;62.75;46.00;;;;;9.05;43.73;100846.06;5056908;28;45704;-79
2022/03/08 11:35:08;;;;;;;;;59.50;44.50;;;;;9.09;43.70;100843.19;5056709;28;46482;-78
2022/03/08 11:37:37;;;;;;;;;52.75;41.00;;;;;9.20;43.57;100852.97;5055699;28;46111;-79
2022/03/08 11:40:17;;;;;;;;;60.25;45.50;;;;;9.25;43.33;100845.69;5056700;28;45508;-78
2022/03/08 11:42:47;;;;;;;;;59.25;44.75;;;;;9.33;43.36;100847.84;5056884;28;45725;-79
2022/03/08 11:45:25;;;;;;;;;59.75;42.75;;;;;9.39;43.32;100850.06;5056649;28;45893;-79
2022/03/08 11:47:59;;;;;;;;;59.75;47.00;;;;;9.45;43.38;100844.44;5056428;28;46088;-79
2022/03/08 11:50:34;;;;;;;;;59.50;45.00;;;;;9.52;43.06;100841.34;5056859;28;45929;-77
2022/03/08 11:53:08;;;;;;;;;59.50;45.00;;;;;9.58;43.17;100835.75;5056667;28;45670;-77
2022/03/08 11:55:35;;;;;;;;;57.00;45.25;;;;;9.62;43.16;100834.59;5056435;28;45615;-79
2022/03/08 11:58:08;;;;;;;;;57.50;43.25;;;;;9.68;42.69;100833.38;5055959;28;45672;-78
2022/03/08 12:00:44;;;;;;;;;55.00;43.00;;;;;9.75;42.95;100837.28;5056477;28;45936;-78
2022/03/08 12:03:15;;;;;;;;;55.75;44.50;;;;;9.74;42.88;100826.91;5056596;28;45497;-79
2022/03/08 12:05:43;;;;;;;;;65.50;50.00;;;;;9.87;42.84;100839.13;5056115;28;45667;-79
2022/03/08 12:08:27;;;;;;;;;82.00;54.50;;;;;9.97;42.69;100836.75;5055911;28;46046;-79
2022/03/08 12:10:58;;;;;;;;;68.25;52.25;;;;;10.03;42.59;100839.81;5055950;28;45570;-80
2022/03/08 12:13:35;;;;;;;;;69.50;52.75;;;;;10.10;42.95;100841.06;5056019;28;45617;-78
2022/03/08 12:16:09;;;;;;;;;61.25;46.50;;;;;10.22;42.63;100838.63;5055756;28;45892;-80
2022/03/08 12:18:41;;;;;;;;;54.75;44.00;;;;;10.30;42.46;100831.94;5055777;28;46102;-78
2022/03/08 12:21:25;;;;;;;;;70.75;53.50;;;;;10.38;42.53;100816.56;5055923;28;45800;-77
2022/03/08 12:23:55;;;;;;;;;71.75;51.75;;;;;10.47;42.39;100815.13;5054131;28;45994;-80
2022/03/08 12:26:31;;;;;;;;;61.00;47.50;;;;;10.53;42.56;100812.06;5055305;28;47799;-79